sensor_id;sensor_type;location;lat;lon;timestamp;temperature;humidity
24410;DHT22;12543;53.364;-1.504;2022-07-23T00:00:16;15.60;99.90
24410;DHT22;12543;53.364;-1.504;2022-07-23T00:02:43;15.60;99.90
24410;DHT22;12543;53.364;-1.504;2022-07-23T00:05:11;15.50;99.90
24410;DHT22;12543;53.364;-1.504;2022-07-23T00:07:38;15.50;99.90
24410;DHT22;12543;53.364;-1.504;2022-07-23T00:10:05;15.50;99.90
24410;DHT22;12543;53.364;-1.504;2022-07-23T00:12:32;15.50;99.90
24410;DHT22;12543;53.364;-1.504;2022-07-23T00:14:59;15.50;99.90
24410;DHT22;12543;53.364;-1.504;2022-07-23T00:17:26;15.50;99.90
24410;DHT22;12543;53.364;-1.504;2022-07-23T00:19:53;15.50;99.90
24410;DHT22;12543;53.364;-1.504;2022-07-23T00:22:20;15.50;99.90
24410;DHT22;12543;53.364;-1.504;2022-07-23T00:24:47;15.50;99.90
24410;DHT22;12543;53.364;-1.504;2022-07-23T00:27:34;15.50;99.90
24410;DHT22;12543;53.364;-1.504;2022-07-23T00:30:01;15.50;99.90
24410;DHT22;12543;53.364;-1.504;2022-07-23T00:32:28;15.50;99.90
24410;DHT22;12543;53.364;-1.504;2022-07-23T00:35:16;15.50;99.90
24410;DHT22;12543;53.364;-1.504;2022-07-23T00:37:43;15.50;99.90
24410;DHT22;12543;53.364;-1.504;2022-07-23T00:40:10;15.60;99.90
24410;DHT22;12543;53.364;-1.504;2022-07-23T00:42:37;15.50;99.90
24410;DHT22;12543;53.364;-1.504;2022-07-23T00:45:04;15.60;99.90
24410;DHT22;12543;53.364;-1.504;2022-07-23T00:47:32;15.60;99.90
24410;DHT22;12543;53.364;-1.504;2022-07-23T00:49:59;15.60;99.90
24410;DHT22;12543;53.364;-1.504;2022-07-23T00:52:26;15.60;99.90
24410;DHT22;12543;53.364;-1.504;2022-07-23T00:54:53;15.60;99.90
24410;DHT22;12543;53.364;-1.504;2022-07-23T00:57:20;15.60;99.90
24410;DHT22;12543;53.364;-1.504;2022-07-23T00:59:54;15.60;99.90
24410;DHT22;12543;53.364;-1.504;2022-07-23T01:02:21;15.60;99.90
24410;DHT22;12543;53.364;-1.504;2022-07-23T01:04:48;15.60;99.90
24410;DHT22;12543;53.364;-1.504;2022-07-23T01:07:15;15.60;99.90
24410;DHT22;12543;53.364;-1.504;2022-07-23T01:09:43;15.50;99.90
24410;DHT22;12543;53.364;-1.504;2022-07-23T01:12:11;15.50;99.90
24410;DHT22;12543;53.364;-1.504;2022-07-23T01:14:38;15.50;99.90
24410;DHT22;12543;53.364;-1.504;2022-07-23T01:17:05;15.50;99.90
24410;DHT22;12543;53.364;-1.504;2022-07-23T01:19:32;15.50;99.90
24410;DHT22;12543;53.364;-1.504;2022-07-23T01:22:01;15.50;99.90
24410;DHT22;12543;53.364;-1.504;2022-07-23T01:24:29;15.50;99.90
24410;DHT22;12543;53.364;-1.504;2022-07-23T01:27:05;15.50;99.90
24410;DHT22;12543;53.364;-1.504;2022-07-23T01:29:35;15.50;99.90
24410;DHT22;12543;53.364;-1.504;2022-07-23T01:32:07;15.50;99.90
24410;DHT22;12543;53.364;-1.504;2022-07-23T01:34:34;15.50;99.90
24410;DHT22;12543;53.364;-1.504;2022-07-23T01:37:01;15.50;99.90
24410;DHT22;12543;53.364;-1.504;2022-07-23T01:39:29;15.50;99.90
24410;DHT22;12543;53.364;-1.504;2022-07-23T01:45:56;15.50;99.90
24410;DHT22;12543;53.364;-1.504;2022-07-23T01:48:28;15.60;99.90
24410;DHT22;12543;53.364;-1.504;2022-07-23T01:51:34;15.50;99.90
24410;DHT22;12543;53.364;-1.504;2022-07-23T01:54:08;15.60;99.90
24410;DHT22;12543;53.364;-1.504;2022-07-23T01:56:35;15.60;99.90
24410;DHT22;12543;53.364;-1.504;2022-07-23T01:59:03;15.60;99.90
24410;DHT22;12543;53.364;-1.504;2022-07-23T02:01:30;15.60;99.90
24410;DHT22;12543;53.364;-1.504;2022-07-23T02:03:58;15.60;99.90
24410;DHT22;12543;53.364;-1.504;2022-07-23T02:06:25;15.60;99.90
24410;DHT22;12543;53.364;-1.504;2022-07-23T02:08:52;15.60;99.90
24410;DHT22;12543;53.364;-1.504;2022-07-23T02:11:21;15.60;99.90
24410;DHT22;12543;53.364;-1.504;2022-07-23T02:13:48;15.60;99.90
24410;DHT22;12543;53.364;-1.504;2022-07-23T02:16:15;15.60;99.90
24410;DHT22;12543;53.364;-1.504;2022-07-23T02:18:43;15.60;99.90
24410;DHT22;12543;53.364;-1.504;2022-07-23T02:21:10;15.70;99.90
24410;DHT22;12543;53.364;-1.504;2022-07-23T02:23:37;15.60;99.90
24410;DHT22;12543;53.364;-1.504;2022-07-23T02:26:04;15.70;99.90
24410;DHT22;12543;53.364;-1.504;2022-07-23T02:28:31;15.70;99.90
24410;DHT22;12543;53.364;-1.504;2022-07-23T02:30:58;15.70;99.90
24410;DHT22;12543;53.364;-1.504;2022-07-23T02:33:25;15.70;99.90
24410;DHT22;12543;53.364;-1.504;2022-07-23T02:35:53;15.60;99.90
24410;DHT22;12543;53.364;-1.504;2022-07-23T02:38:20;15.70;99.90
24410;DHT22;12543;53.364;-1.504;2022-07-23T02:40:47;15.70;99.90
24410;DHT22;12543;53.364;-1.504;2022-07-23T02:43:15;15.70;99.90
24410;DHT22;12543;53.364;-1.504;2022-07-23T02:45:44;15.70;99.90
24410;DHT22;12543;53.364;-1.504;2022-07-23T02:48:11;15.60;99.90
24410;DHT22;12543;53.364;-1.504;2022-07-23T02:50:42;15.60;99.90
24410;DHT22;12543;53.364;-1.504;2022-07-23T02:53:12;15.60;99.90
24410;DHT22;12543;53.364;-1.504;2022-07-23T02:55:40;15.60;99.90
24410;DHT22;12543;53.364;-1.504;2022-07-23T02:58:09;15.60;99.90
24410;DHT22;12543;53.364;-1.504;2022-07-23T03:00:36;15.60;99.90
24410;DHT22;12543;53.364;-1.504;2022-07-23T03:03:04;15.60;99.90
24410;DHT22;12543;53.364;-1.504;2022-07-23T03:05:31;15.60;99.90
24410;DHT22;12543;53.364;-1.504;2022-07-23T03:07:58;15.60;99.90
24410;DHT22;12543;53.364;-1.504;2022-07-23T03:10:25;15.50;99.90
24410;DHT22;12543;53.364;-1.504;2022-07-23T03:12:52;15.50;99.90
24410;DHT22;12543;53.364;-1.504;2022-07-23T03:15:19;15.50;99.90
24410;DHT22;12543;53.364;-1.504;2022-07-23T03:17:46;15.50;99.90
24410;DHT22;12543;53.364;-1.504;2022-07-23T03:20:13;15.40;99.90
24410;DHT22;12543;53.364;-1.504;2022-07-23T03:22:39;15.40;99.90
24410;DHT22;12543;53.364;-1.504;2022-07-23T03:25:07;15.30;99.90
24410;DHT22;12543;53.364;-1.504;2022-07-23T03:27:34;15.30;99.90
24410;DHT22;12543;53.364;-1.504;2022-07-23T03:30:02;15.30;99.90
24410;DHT22;12543;53.364;-1.504;2022-07-23T03:32:29;15.30;99.90
24410;DHT22;12543;53.364;-1.504;2022-07-23T03:34:56;15.30;99.90
24410;DHT22;12543;53.364;-1.504;2022-07-23T03:37:23;15.20;99.90
24410;DHT22;12543;53.364;-1.504;2022-07-23T03:39:50;15.20;99.90
24410;DHT22;12543;53.364;-1.504;2022-07-23T03:42:17;15.10;99.90
24410;DHT22;12543;53.364;-1.504;2022-07-23T03:44:45;15.10;99.90
24410;DHT22;12543;53.364;-1.504;2022-07-23T03:47:12;15.10;99.90
24410;DHT22;12543;53.364;-1.504;2022-07-23T03:49:39;15.10;99.90
24410;DHT22;12543;53.364;-1.504;2022-07-23T03:52:06;15.10;99.90
24410;DHT22;12543;53.364;-1.504;2022-07-23T03:54:33;15.10;99.90
24410;DHT22;12543;53.364;-1.504;2022-07-23T03:57:01;15.10;99.90
24410;DHT22;12543;53.364;-1.504;2022-07-23T03:59:30;15.00;99.90
24410;DHT22;12543;53.364;-1.504;2022-07-23T04:01:57;15.00;99.90
24410;DHT22;12543;53.364;-1.504;2022-07-23T04:04:24;15.00;99.90
24410;DHT22;12543;53.364;-1.504;2022-07-23T04:06:51;15.00;99.90
24410;DHT22;12543;53.364;-1.504;2022-07-23T04:09:19;15.00;99.90
24410;DHT22;12543;53.364;-1.504;2022-07-23T04:11:46;15.00;99.90
24410;DHT22;12543;53.364;-1.504;2022-07-23T04:14:13;15.00;99.90
24410;DHT22;12543;53.364;-1.504;2022-07-23T04:16:40;14.90;99.90
24410;DHT22;12543;53.364;-1.504;2022-07-23T04:19:07;14.90;99.90
24410;DHT22;12543;53.364;-1.504;2022-07-23T04:21:44;14.90;99.90
24410;DHT22;12543;53.364;-1.504;2022-07-23T04:24:11;14.90;99.90
24410;DHT22;12543;53.364;-1.504;2022-07-23T04:26:39;14.90;99.90
24410;DHT22;12543;53.364;-1.504;2022-07-23T04:29:06;14.90;99.90
24410;DHT22;12543;53.364;-1.504;2022-07-23T04:31:33;14.90;99.90
24410;DHT22;12543;53.364;-1.504;2022-07-23T04:34:04;14.90;99.90
24410;DHT22;12543;53.364;-1.504;2022-07-23T04:36:32;14.90;99.90
24410;DHT22;12543;53.364;-1.504;2022-07-23T04:38:59;14.90;99.90
24410;DHT22;12543;53.364;-1.504;2022-07-23T04:41:27;15.00;99.90
24410;DHT22;12543;53.364;-1.504;2022-07-23T04:43:54;15.00;99.90
24410;DHT22;12543;53.364;-1.504;2022-07-23T04:46:21;15.00;99.90
24410;DHT22;12543;53.364;-1.504;2022-07-23T04:48:50;15.00;99.90
24410;DHT22;12543;53.364;-1.504;2022-07-23T04:51:18;15.00;99.90
24410;DHT22;12543;53.364;-1.504;2022-07-23T04:53:45;15.10;99.90
24410;DHT22;12543;53.364;-1.504;2022-07-23T04:56:12;15.00;99.90
24410;DHT22;12543;53.364;-1.504;2022-07-23T04:58:40;15.10;99.90
24410;DHT22;12543;53.364;-1.504;2022-07-23T05:01:08;15.10;99.90
24410;DHT22;12543;53.364;-1.504;2022-07-23T05:03:36;15.10;99.90
24410;DHT22;12543;53.364;-1.504;2022-07-23T05:06:03;15.10;99.90
24410;DHT22;12543;53.364;-1.504;2022-07-23T05:08:31;15.10;99.90
24410;DHT22;12543;53.364;-1.504;2022-07-23T05:10:58;15.10;99.90
24410;DHT22;12543;53.364;-1.504;2022-07-23T05:13:27;15.10;99.90
24410;DHT22;12543;53.364;-1.504;2022-07-23T05:15:54;15.10;99.90
24410;DHT22;12543;53.364;-1.504;2022-07-23T05:18:23;15.10;99.90
24410;DHT22;12543;53.364;-1.504;2022-07-23T05:20:50;15.10;99.90
24410;DHT22;12543;53.364;-1.504;2022-07-23T05:23:19;15.20;99.90
24410;DHT22;12543;53.364;-1.504;2022-07-23T05:25:48;15.20;99.90
24410;DHT22;12543;53.364;-1.504;2022-07-23T05:28:15;15.20;99.90
24410;DHT22;12543;53.364;-1.504;2022-07-23T05:30:47;15.20;99.90
24410;DHT22;12543;53.364;-1.504;2022-07-23T05:33:18;15.20;99.90
24410;DHT22;12543;53.364;-1.504;2022-07-23T05:35:45;15.20;99.90
24410;DHT22;12543;53.364;-1.504;2022-07-23T05:38:27;15.30;99.90
24410;DHT22;12543;53.364;-1.504;2022-07-23T05:40:57;15.30;99.90
24410;DHT22;12543;53.364;-1.504;2022-07-23T05:43:28;15.30;99.90
24410;DHT22;12543;53.364;-1.504;2022-07-23T05:45:57;15.30;99.90
24410;DHT22;12543;53.364;-1.504;2022-07-23T05:48:24;15.30;99.90
24410;DHT22;12543;53.364;-1.504;2022-07-23T05:51:00;15.30;99.90
24410;DHT22;12543;53.364;-1.504;2022-07-23T05:53:31;15.30;99.90
24410;DHT22;12543;53.364;-1.504;2022-07-23T05:56:06;15.30;99.90
24410;DHT22;12543;53.364;-1.504;2022-07-23T05:58:34;15.40;99.90
24410;DHT22;12543;53.364;-1.504;2022-07-23T06:01:01;15.40;99.90
24410;DHT22;12543;53.364;-1.504;2022-07-23T06:03:35;15.40;99.90
24410;DHT22;12543;53.364;-1.504;2022-07-23T06:06:03;15.40;99.90
24410;DHT22;12543;53.364;-1.504;2022-07-23T06:08:30;15.50;99.90
24410;DHT22;12543;53.364;-1.504;2022-07-23T06:10:59;15.40;99.90
24410;DHT22;12543;53.364;-1.504;2022-07-23T06:13:27;15.50;99.90
24410;DHT22;12543;53.364;-1.504;2022-07-23T06:15:54;15.50;99.90
24410;DHT22;12543;53.364;-1.504;2022-07-23T06:18:21;15.50;99.90
24410;DHT22;12543;53.364;-1.504;2022-07-23T06:20:48;15.50;99.90
24410;DHT22;12543;53.364;-1.504;2022-07-23T06:23:18;15.50;99.90
24410;DHT22;12543;53.364;-1.504;2022-07-23T06:25:45;15.60;99.90
24410;DHT22;12543;53.364;-1.504;2022-07-23T06:28:12;15.60;99.90
24410;DHT22;12543;53.364;-1.504;2022-07-23T06:30:41;15.60;99.90
24410;DHT22;12543;53.364;-1.504;2022-07-23T06:33:09;15.60;99.90
24410;DHT22;12543;53.364;-1.504;2022-07-23T06:35:38;15.60;99.90
24410;DHT22;12543;53.364;-1.504;2022-07-23T06:38:07;15.60;99.90
24410;DHT22;12543;53.364;-1.504;2022-07-23T06:40:34;15.60;99.90
24410;DHT22;12543;53.364;-1.504;2022-07-23T06:43:01;15.70;99.90
24410;DHT22;12543;53.364;-1.504;2022-07-23T06:45:29;15.70;99.90
24410;DHT22;12543;53.364;-1.504;2022-07-23T06:47:56;15.70;99.90
24410;DHT22;12543;53.364;-1.504;2022-07-23T06:50:23;15.80;99.90
24410;DHT22;12543;53.364;-1.504;2022-07-23T06:52:50;15.80;99.90
24410;DHT22;12543;53.364;-1.504;2022-07-23T06:55:17;15.90;99.90
24410;DHT22;12543;53.364;-1.504;2022-07-23T06:57:44;16.00;99.90
24410;DHT22;12543;53.364;-1.504;2022-07-23T07:00:11;16.10;99.90
24410;DHT22;12543;53.364;-1.504;2022-07-23T07:02:38;16.10;99.90
24410;DHT22;12543;53.364;-1.504;2022-07-23T07:05:06;16.20;99.90
24410;DHT22;12543;53.364;-1.504;2022-07-23T07:07:33;16.30;99.90
24410;DHT22;12543;53.364;-1.504;2022-07-23T07:10:01;16.30;99.90
24410;DHT22;12543;53.364;-1.504;2022-07-23T07:12:29;16.40;99.90
24410;DHT22;12543;53.364;-1.504;2022-07-23T07:14:56;16.50;99.90
24410;DHT22;12543;53.364;-1.504;2022-07-23T07:17:49;16.60;99.90
24410;DHT22;12543;53.364;-1.504;2022-07-23T07:20:16;16.60;99.90
24410;DHT22;12543;53.364;-1.504;2022-07-23T07:22:43;16.70;99.90
24410;DHT22;12543;53.364;-1.504;2022-07-23T07:25:10;16.70;99.90
24410;DHT22;12543;53.364;-1.504;2022-07-23T07:27:37;16.80;99.90
24410;DHT22;12543;53.364;-1.504;2022-07-23T07:30:04;16.80;99.90
24410;DHT22;12543;53.364;-1.504;2022-07-23T07:32:31;16.80;99.90
24410;DHT22;12543;53.364;-1.504;2022-07-23T07:35:23;16.90;99.90
24410;DHT22;12543;53.364;-1.504;2022-07-23T07:37:50;16.90;99.90
24410;DHT22;12543;53.364;-1.504;2022-07-23T07:40:17;17.00;99.90
24410;DHT22;12543;53.364;-1.504;2022-07-23T07:42:45;17.10;99.90
24410;DHT22;12543;53.364;-1.504;2022-07-23T07:45:12;17.20;99.90
24410;DHT22;12543;53.364;-1.504;2022-07-23T07:47:39;17.20;99.90
24410;DHT22;12543;53.364;-1.504;2022-07-23T07:50:06;17.30;99.90
24410;DHT22;12543;53.364;-1.504;2022-07-23T07:52:35;17.40;99.90
24410;DHT22;12543;53.364;-1.504;2022-07-23T07:55:07;17.50;99.90
24410;DHT22;12543;53.364;-1.504;2022-07-23T07:57:35;17.50;99.90
24410;DHT22;12543;53.364;-1.504;2022-07-23T08:00:03;17.60;99.90
24410;DHT22;12543;53.364;-1.504;2022-07-23T08:02:47;17.70;99.90
24410;DHT22;12543;53.364;-1.504;2022-07-23T08:05:18;17.70;99.90
24410;DHT22;12543;53.364;-1.504;2022-07-23T08:07:52;17.80;99.90
24410;DHT22;12543;53.364;-1.504;2022-07-23T08:10:19;17.90;99.90
24410;DHT22;12543;53.364;-1.504;2022-07-23T08:12:51;18.00;99.90
24410;DHT22;12543;53.364;-1.504;2022-07-23T08:15:22;18.10;99.90
24410;DHT22;12543;53.364;-1.504;2022-07-23T08:17:49;18.20;99.90
24410;DHT22;12543;53.364;-1.504;2022-07-23T08:20:17;18.20;99.90
24410;DHT22;12543;53.364;-1.504;2022-07-23T08:23:03;18.40;99.90
24410;DHT22;12543;53.364;-1.504;2022-07-23T08:25:32;18.40;99.90
24410;DHT22;12543;53.364;-1.504;2022-07-23T08:28:02;18.50;99.90
24410;DHT22;12543;53.364;-1.504;2022-07-23T08:30:30;18.50;99.90
24410;DHT22;12543;53.364;-1.504;2022-07-23T08:35:26;18.70;99.90
24410;DHT22;12543;53.364;-1.504;2022-07-23T08:37:53;18.80;99.90
24410;DHT22;12543;53.364;-1.504;2022-07-23T08:40:20;18.80;99.90
24410;DHT22;12543;53.364;-1.504;2022-07-23T08:42:48;18.90;99.90
24410;DHT22;12543;53.364;-1.504;2022-07-23T08:45:19;18.90;99.90
24410;DHT22;12543;53.364;-1.504;2022-07-23T08:47:51;19.00;99.90
24410;DHT22;12543;53.364;-1.504;2022-07-23T08:50:19;19.10;99.90
24410;DHT22;12543;53.364;-1.504;2022-07-23T08:52:47;19.10;99.90
24410;DHT22;12543;53.364;-1.504;2022-07-23T08:55:16;19.20;99.90
24410;DHT22;12543;53.364;-1.504;2022-07-23T08:57:43;19.30;99.90
24410;DHT22;12543;53.364;-1.504;2022-07-23T09:00:10;19.30;99.90
24410;DHT22;12543;53.364;-1.504;2022-07-23T09:02:38;19.50;99.90
24410;DHT22;12543;53.364;-1.504;2022-07-23T09:05:06;19.50;99.90
24410;DHT22;12543;53.364;-1.504;2022-07-23T09:07:33;19.60;99.90
24410;DHT22;12543;53.364;-1.504;2022-07-23T09:10:10;19.70;99.90
24410;DHT22;12543;53.364;-1.504;2022-07-23T09:12:37;19.70;99.90
24410;DHT22;12543;53.364;-1.504;2022-07-23T09:15:07;19.80;99.90
24410;DHT22;12543;53.364;-1.504;2022-07-23T09:17:38;19.80;99.90
24410;DHT22;12543;53.364;-1.504;2022-07-23T09:20:13;19.80;99.90
24410;DHT22;12543;53.364;-1.504;2022-07-23T09:22:46;19.80;99.90
24410;DHT22;12543;53.364;-1.504;2022-07-23T09:25:15;19.70;99.90
24410;DHT22;12543;53.364;-1.504;2022-07-23T09:30:20;19.70;99.90
24410;DHT22;12543;53.364;-1.504;2022-07-23T09:35:43;19.70;99.90
24410;DHT22;12543;53.364;-1.504;2022-07-23T09:38:11;19.70;99.90
24410;DHT22;12543;53.364;-1.504;2022-07-23T09:40:38;19.70;99.90
24410;DHT22;12543;53.364;-1.504;2022-07-23T09:43:05;19.70;99.90
24410;DHT22;12543;53.364;-1.504;2022-07-23T09:45:32;19.80;99.90
24410;DHT22;12543;53.364;-1.504;2022-07-23T09:48:12;19.90;99.90
24410;DHT22;12543;53.364;-1.504;2022-07-23T09:50:40;20.10;99.90
24410;DHT22;12543;53.364;-1.504;2022-07-23T09:53:07;20.20;99.90
24410;DHT22;12543;53.364;-1.504;2022-07-23T09:55:35;20.20;99.90
24410;DHT22;12543;53.364;-1.504;2022-07-23T09:58:06;20.30;99.90
24410;DHT22;12543;53.364;-1.504;2022-07-23T10:00:40;20.30;99.90
24410;DHT22;12543;53.364;-1.504;2022-07-23T10:03:07;20.30;99.90
24410;DHT22;12543;53.364;-1.504;2022-07-23T10:05:54;20.30;99.90
24410;DHT22;12543;53.364;-1.504;2022-07-23T10:08:29;20.40;99.90
24410;DHT22;12543;53.364;-1.504;2022-07-23T10:11:16;20.50;99.90
24410;DHT22;12543;53.364;-1.504;2022-07-23T10:13:53;20.60;99.90
24410;DHT22;12543;53.364;-1.504;2022-07-23T10:16:34;20.90;99.90
24410;DHT22;12543;53.364;-1.504;2022-07-23T10:19:02;21.40;99.90
24410;DHT22;12543;53.364;-1.504;2022-07-23T10:26:35;22.10;99.90
24410;DHT22;12543;53.364;-1.504;2022-07-23T10:31:52;22.20;99.90
24410;DHT22;12543;53.364;-1.504;2022-07-23T10:34:36;22.20;99.90
24410;DHT22;12543;53.364;-1.504;2022-07-23T10:37:12;22.30;99.90
24410;DHT22;12543;53.364;-1.504;2022-07-23T10:40:20;22.30;99.90
24410;DHT22;12543;53.364;-1.504;2022-07-23T10:42:48;22.40;99.90
24410;DHT22;12543;53.364;-1.504;2022-07-23T10:45:31;22.40;99.90
24410;DHT22;12543;53.364;-1.504;2022-07-23T10:53:54;22.80;99.90
24410;DHT22;12543;53.364;-1.504;2022-07-23T10:59:07;22.80;99.90
24410;DHT22;12543;53.364;-1.504;2022-07-23T11:01:35;22.80;99.90
24410;DHT22;12543;53.364;-1.504;2022-07-23T11:04:03;22.80;99.90
24410;DHT22;12543;53.364;-1.504;2022-07-23T11:17:24;22.50;99.90
24410;DHT22;12543;53.364;-1.504;2022-07-23T11:25:10;22.30;99.90
24410;DHT22;12543;53.364;-1.504;2022-07-23T11:27:42;22.20;99.90
24410;DHT22;12543;53.364;-1.504;2022-07-23T11:32:54;22.00;99.90
24410;DHT22;12543;53.364;-1.504;2022-07-23T11:35:42;21.90;99.90
24410;DHT22;12543;53.364;-1.504;2022-07-23T11:40:44;21.70;99.90
24410;DHT22;12543;53.364;-1.504;2022-07-23T11:43:12;21.60;99.90
24410;DHT22;12543;53.364;-1.504;2022-07-23T11:48:07;21.50;99.90
24410;DHT22;12543;53.364;-1.504;2022-07-23T11:50:35;21.40;99.90
24410;DHT22;12543;53.364;-1.504;2022-07-23T11:53:02;21.30;99.90
24410;DHT22;12543;53.364;-1.504;2022-07-23T11:55:30;21.30;99.90
24410;DHT22;12543;53.364;-1.504;2022-07-23T11:57:57;21.20;99.90
24410;DHT22;12543;53.364;-1.504;2022-07-23T12:00:27;21.20;99.90
24410;DHT22;12543;53.364;-1.504;2022-07-23T12:02:56;21.10;99.90
24410;DHT22;12543;53.364;-1.504;2022-07-23T12:05:26;21.10;99.90
24410;DHT22;12543;53.364;-1.504;2022-07-23T12:07:54;21.00;99.90
24410;DHT22;12543;53.364;-1.504;2022-07-23T12:12:52;20.90;99.90
24410;DHT22;12543;53.364;-1.504;2022-07-23T12:15:21;20.90;99.90
24410;DHT22;12543;53.364;-1.504;2022-07-23T12:17:49;20.80;99.90
24410;DHT22;12543;53.364;-1.504;2022-07-23T12:20:36;20.80;99.90
24410;DHT22;12543;53.364;-1.504;2022-07-23T12:23:04;20.80;99.90
24410;DHT22;12543;53.364;-1.504;2022-07-23T12:25:32;20.70;99.90
24410;DHT22;12543;53.364;-1.504;2022-07-23T12:28:04;20.70;99.90
24410;DHT22;12543;53.364;-1.504;2022-07-23T12:30:54;20.70;99.90
24410;DHT22;12543;53.364;-1.504;2022-07-23T12:33:23;20.70;99.90
24410;DHT22;12543;53.364;-1.504;2022-07-23T12:35:51;20.80;99.90
24410;DHT22;12543;53.364;-1.504;2022-07-23T12:38:19;20.80;99.90
24410;DHT22;12543;53.364;-1.504;2022-07-23T12:40:54;20.80;99.90
24410;DHT22;12543;53.364;-1.504;2022-07-23T12:45:51;20.80;99.90
24410;DHT22;12543;53.364;-1.504;2022-07-23T12:48:23;20.80;99.90
24410;DHT22;12543;53.364;-1.504;2022-07-23T12:50:55;20.80;99.90
24410;DHT22;12543;53.364;-1.504;2022-07-23T12:55:51;20.70;99.90
24410;DHT22;12543;53.364;-1.504;2022-07-23T13:01:09;20.70;99.90
24410;DHT22;12543;53.364;-1.504;2022-07-23T13:03:39;20.70;99.90
24410;DHT22;12543;53.364;-1.504;2022-07-23T13:06:08;20.70;99.90
24410;DHT22;12543;53.364;-1.504;2022-07-23T13:08:36;20.70;99.90
24410;DHT22;12543;53.364;-1.504;2022-07-23T13:11:04;20.70;99.90
24410;DHT22;12543;53.364;-1.504;2022-07-23T13:13:33;20.70;99.90
24410;DHT22;12543;53.364;-1.504;2022-07-23T13:16:01;20.70;99.90
24410;DHT22;12543;53.364;-1.504;2022-07-23T13:18:36;20.80;99.90
24410;DHT22;12543;53.364;-1.504;2022-07-23T13:21:03;20.80;99.90
24410;DHT22;12543;53.364;-1.504;2022-07-23T13:23:31;20.80;99.90
24410;DHT22;12543;53.364;-1.504;2022-07-23T13:25:58;20.90;99.90
24410;DHT22;12543;53.364;-1.504;2022-07-23T13:28:25;20.90;99.90
24410;DHT22;12543;53.364;-1.504;2022-07-23T13:30:53;21.00;99.90
24410;DHT22;12543;53.364;-1.504;2022-07-23T13:33:22;21.00;99.90
24410;DHT22;12543;53.364;-1.504;2022-07-23T13:35:49;21.00;99.90
24410;DHT22;12543;53.364;-1.504;2022-07-23T13:38:18;21.10;99.90
24410;DHT22;12543;53.364;-1.504;2022-07-23T13:40:46;21.20;99.90
24410;DHT22;12543;53.364;-1.504;2022-07-23T13:43:15;21.20;99.90
24410;DHT22;12543;53.364;-1.504;2022-07-23T13:45:48;21.30;99.90
24410;DHT22;12543;53.364;-1.504;2022-07-23T13:48:16;21.40;99.90
24410;DHT22;12543;53.364;-1.504;2022-07-23T13:50:43;21.40;99.90
24410;DHT22;12543;53.364;-1.504;2022-07-23T13:53:11;21.40;99.90
24410;DHT22;12543;53.364;-1.504;2022-07-23T13:55:39;21.40;99.90
24410;DHT22;12543;53.364;-1.504;2022-07-23T13:58:14;21.40;99.90
24410;DHT22;12543;53.364;-1.504;2022-07-23T14:00:43;21.40;99.90
24410;DHT22;12543;53.364;-1.504;2022-07-23T14:06:14;21.40;99.90
24410;DHT22;12543;53.364;-1.504;2022-07-23T14:08:43;21.40;99.90
24410;DHT22;12543;53.364;-1.504;2022-07-23T14:11:11;21.40;99.90
24410;DHT22;12543;53.364;-1.504;2022-07-23T14:13:38;21.40;99.90
24410;DHT22;12543;53.364;-1.504;2022-07-23T14:16:06;21.50;99.90
24410;DHT22;12543;53.364;-1.504;2022-07-23T14:18:33;21.50;99.90
24410;DHT22;12543;53.364;-1.504;2022-07-23T14:21:01;21.50;99.90
24410;DHT22;12543;53.364;-1.504;2022-07-23T14:23:28;21.50;99.90
24410;DHT22;12543;53.364;-1.504;2022-07-23T14:25:56;21.50;99.90
24410;DHT22;12543;53.364;-1.504;2022-07-23T14:28:23;21.50;99.90
24410;DHT22;12543;53.364;-1.504;2022-07-23T14:30:53;21.40;99.90
24410;DHT22;12543;53.364;-1.504;2022-07-23T14:33:20;21.40;99.90
24410;DHT22;12543;53.364;-1.504;2022-07-23T14:35:47;21.40;99.90
24410;DHT22;12543;53.364;-1.504;2022-07-23T14:38:14;21.40;99.90
24410;DHT22;12543;53.364;-1.504;2022-07-23T14:40:41;21.40;99.90
24410;DHT22;12543;53.364;-1.504;2022-07-23T14:43:08;21.40;99.90
24410;DHT22;12543;53.364;-1.504;2022-07-23T14:45:38;21.50;99.90
24410;DHT22;12543;53.364;-1.504;2022-07-23T14:48:05;21.50;99.90
24410;DHT22;12543;53.364;-1.504;2022-07-23T14:50:34;21.50;99.90
24410;DHT22;12543;53.364;-1.504;2022-07-23T14:53:01;21.50;99.90
24410;DHT22;12543;53.364;-1.504;2022-07-23T14:55:30;21.50;99.90
24410;DHT22;12543;53.364;-1.504;2022-07-23T14:57:57;21.50;99.90
24410;DHT22;12543;53.364;-1.504;2022-07-23T15:00:26;21.50;99.90
24410;DHT22;12543;53.364;-1.504;2022-07-23T15:02:53;21.50;99.90
24410;DHT22;12543;53.364;-1.504;2022-07-23T15:05:22;21.50;99.90
24410;DHT22;12543;53.364;-1.504;2022-07-23T15:07:51;21.40;99.90
24410;DHT22;12543;53.364;-1.504;2022-07-23T15:10:18;21.40;99.90
24410;DHT22;12543;53.364;-1.504;2022-07-23T15:12:46;21.40;99.90
24410;DHT22;12543;53.364;-1.504;2022-07-23T15:15:13;21.50;99.90
24410;DHT22;12543;53.364;-1.504;2022-07-23T15:17:41;21.50;99.90
24410;DHT22;12543;53.364;-1.504;2022-07-23T15:20:10;21.50;99.90
24410;DHT22;12543;53.364;-1.504;2022-07-23T15:22:37;21.50;99.90
24410;DHT22;12543;53.364;-1.504;2022-07-23T15:25:05;21.30;99.90
24410;DHT22;12543;53.364;-1.504;2022-07-23T15:27:33;21.20;99.90
24410;DHT22;12543;53.364;-1.504;2022-07-23T15:30:00;21.00;99.90
24410;DHT22;12543;53.364;-1.504;2022-07-23T15:32:27;20.90;99.90
24410;DHT22;12543;53.364;-1.504;2022-07-23T15:34:54;20.80;99.90
24410;DHT22;12543;53.364;-1.504;2022-07-23T15:37:22;20.70;99.90
24410;DHT22;12543;53.364;-1.504;2022-07-23T15:39:53;20.70;99.90
24410;DHT22;12543;53.364;-1.504;2022-07-23T15:42:20;20.60;99.90
24410;DHT22;12543;53.364;-1.504;2022-07-23T15:44:47;20.60;99.90
24410;DHT22;12543;53.364;-1.504;2022-07-23T15:47:14;20.50;99.90
24410;DHT22;12543;53.364;-1.504;2022-07-23T15:49:43;20.50;99.90
24410;DHT22;12543;53.364;-1.504;2022-07-23T15:52:11;20.40;99.90
24410;DHT22;12543;53.364;-1.504;2022-07-23T15:54:39;20.40;99.90
24410;DHT22;12543;53.364;-1.504;2022-07-23T15:57:06;20.40;99.90
24410;DHT22;12543;53.364;-1.504;2022-07-23T15:59:34;20.40;99.90
24410;DHT22;12543;53.364;-1.504;2022-07-23T16:02:02;20.40;99.90
24410;DHT22;12543;53.364;-1.504;2022-07-23T16:04:29;20.40;99.90
24410;DHT22;12543;53.364;-1.504;2022-07-23T16:06:56;20.40;99.90
24410;DHT22;12543;53.364;-1.504;2022-07-23T16:09:24;20.50;99.90
24410;DHT22;12543;53.364;-1.504;2022-07-23T16:11:51;20.50;99.90
24410;DHT22;12543;53.364;-1.504;2022-07-23T16:14:20;20.60;99.90
24410;DHT22;12543;53.364;-1.504;2022-07-23T16:16:47;20.60;99.90
24410;DHT22;12543;53.364;-1.504;2022-07-23T16:19:14;20.70;99.90
24410;DHT22;12543;53.364;-1.504;2022-07-23T16:21:41;20.80;99.90
24410;DHT22;12543;53.364;-1.504;2022-07-23T16:24:08;20.80;99.90
24410;DHT22;12543;53.364;-1.504;2022-07-23T16:26:34;20.90;99.90
24410;DHT22;12543;53.364;-1.504;2022-07-23T16:29:01;21.00;99.90
24410;DHT22;12543;53.364;-1.504;2022-07-23T16:31:29;21.00;99.90